createdAt,value
2022-08-23T00:05:03.773Z,45.53
2022-08-23T00:10:00.230Z,45.66
2022-08-23T00:15:07.385Z,45.65
2022-08-23T00:20:14.582Z,45.81
2022-08-23T00:25:21.855Z,45.75
2022-08-23T00:30:29.037Z,45.71
2022-08-23T00:35:36.255Z,45.83
2022-08-23T00:40:43.453Z,45.94
2022-08-23T00:45:50.635Z,45.94
2022-08-23T00:50:57.897Z,45.95
2022-08-23T00:56:05.117Z,46.57
2022-08-23T01:01:12.403Z,46.44
2022-08-23T01:06:19.657Z,46.32
2022-08-23T01:11:26.910Z,46.12
2022-08-23T01:16:34.104Z,46.34
2022-08-23T01:21:41.547Z,48.12
2022-08-23T01:26:48.511Z,47.32
2022-08-23T01:31:55.823Z,46.57
2022-08-23T01:37:03.053Z,46.35
2022-08-23T01:42:10.320Z,46.29
2022-08-23T01:47:17.564Z,46.09
2022-08-23T01:52:24.747Z,46.05
2022-08-23T01:57:31.963Z,46.14
2022-08-23T02:02:39.194Z,46.28
2022-08-23T02:07:46.470Z,46.21
2022-08-23T02:12:53.726Z,46.06
2022-08-23T02:18:01.202Z,45.93
2022-08-23T02:23:08.201Z,46.04
2022-08-23T02:28:15.783Z,46.05
2022-08-23T02:33:23.026Z,46.03
2022-08-23T02:38:30.246Z,45.99
2022-08-23T02:43:40.961Z,46.18
2022-08-23T02:48:44.868Z,46.30
2022-08-23T02:53:52.096Z,46.11
2022-08-23T02:58:59.277Z,45.93
2022-08-23T03:04:06.436Z,46.05
2022-08-23T03:09:13.708Z,46.65
2022-08-23T03:14:20.896Z,46.43
2022-08-23T03:19:28.099Z,46.20
2022-08-23T03:24:35.280Z,46.00
2022-08-23T03:29:42.561Z,45.98
2022-08-23T03:34:49.774Z,46.00
2022-08-23T03:39:57.038Z,46.02
2022-08-23T03:45:04.232Z,46.03
2022-08-23T03:50:11.400Z,45.95
2022-08-23T03:55:18.567Z,45.82
2022-08-23T04:00:25.744Z,45.69
2022-08-23T04:05:32.961Z,45.64
2022-08-23T04:10:40.146Z,45.66
2022-08-23T04:15:47.343Z,45.75
2022-08-23T04:20:54.525Z,45.72
2022-08-23T04:26:01.772Z,45.75
2022-08-23T04:31:09.008Z,45.81
2022-08-23T04:36:16.274Z,45.80
2022-08-23T04:41:23.565Z,45.75
2022-08-23T04:46:30.734Z,45.80
2022-08-23T04:51:37.935Z,45.93
2022-08-23T04:56:45.192Z,45.96
2022-08-23T05:01:52.543Z,45.89
2022-08-23T05:06:59.830Z,45.82
2022-08-23T05:12:07.116Z,45.87
2022-08-23T05:17:14.365Z,45.97
2022-08-23T05:22:21.681Z,46.30
2022-08-23T05:27:28.869Z,46.53
2022-08-23T05:32:36.111Z,46.36
2022-08-23T05:37:43.369Z,46.50
2022-08-23T05:42:50.571Z,46.68
2022-08-23T05:47:57.908Z,46.98
2022-08-23T05:53:05.099Z,47.42
2022-08-23T05:58:12.334Z,47.34
2022-08-23T06:03:19.556Z,47.12
2022-08-23T06:08:26.723Z,48.09
2022-08-23T06:13:34.040Z,47.90
2022-08-23T06:18:41.277Z,47.45
2022-08-23T06:23:48.461Z,47.13
2022-08-23T06:28:55.765Z,47.75
2022-08-23T06:34:03.254Z,47.39
2022-08-23T06:39:10.324Z,48.57
2022-08-23T06:44:17.604Z,48.05
2022-08-23T06:49:24.778Z,47.92
2022-08-23T06:54:31.979Z,47.68
2022-08-23T06:59:39.148Z,47.71
2022-08-23T07:04:46.347Z,47.48
2022-08-23T07:09:53.634Z,47.37
2022-08-23T07:15:00.814Z,47.30
2022-08-23T07:20:08.022Z,47.18
2022-08-23T07:25:15.594Z,47.11
2022-08-23T07:30:22.365Z,46.88
2022-08-23T07:35:29.530Z,46.84
2022-08-23T07:40:39.154Z,46.69
2022-08-23T07:45:43.897Z,46.60
2022-08-23T07:50:54.694Z,45.44
2022-08-23T07:55:58.309Z,45.78
2022-08-23T08:01:05.474Z,45.72
2022-08-23T08:06:12.703Z,45.81
2022-08-23T08:11:20.111Z,46.11
2022-08-23T08:16:27.164Z,46.33
2022-08-23T08:21:34.416Z,46.49
2022-08-23T08:26:41.700Z,46.22
2022-08-23T08:31:53.632Z,46.42
2022-08-23T08:36:58.232Z,46.31
2022-08-23T08:42:04.938Z,46.81
2022-08-23T08:47:10.642Z,46.60
2022-08-23T08:52:17.831Z,46.19
2022-08-23T08:57:27.316Z,45.36
2022-08-23T09:02:33.501Z,45.80
2022-08-23T09:07:39.491Z,45.73
2022-08-23T09:12:46.681Z,45.79
2022-08-23T09:17:53.970Z,45.55
2022-08-23T09:23:01.154Z,45.34
2022-08-23T09:28:08.301Z,45.51
2022-08-23T09:33:15.604Z,45.96
2022-08-23T09:38:22.749Z,46.31
2022-08-23T09:43:29.933Z,45.91
2022-08-23T09:48:37.148Z,45.09
2022-08-23T09:53:44.339Z,44.81
2022-08-23T09:58:53.235Z,43.33
2022-08-23T10:04:01.571Z,43.72
2022-08-23T10:09:08.703Z,43.93
2022-08-23T10:14:15.986Z,44.55
2022-08-23T10:19:23.493Z,44.78
2022-08-23T10:24:30.652Z,44.71
2022-08-23T10:29:37.820Z,44.78
2022-08-23T10:34:49.823Z,44.83
2022-08-23T10:39:52.285Z,44.87
2022-08-23T10:44:59.562Z,44.85
2022-08-23T10:50:06.786Z,45.77
2022-08-23T10:55:15.168Z,46.14
2022-08-23T11:00:27.269Z,45.82
2022-08-23T11:05:34.522Z,45.69
2022-08-23T11:10:41.743Z,45.39
2022-08-23T11:15:49.591Z,44.50
2022-08-23T11:20:56.691Z,44.53
2022-08-23T11:26:03.921Z,44.50
2022-08-23T11:31:11.831Z,44.17
2022-08-23T11:36:18.501Z,44.33
2022-08-23T11:41:25.666Z,44.43
2022-08-23T11:46:32.930Z,44.66
2022-08-23T11:51:40.062Z,43.60
2022-08-23T11:56:47.264Z,43.11
2022-08-23T12:01:54.504Z,42.15
2022-08-23T12:07:01.799Z,41.94
2022-08-23T12:12:08.995Z,41.59
2022-08-23T12:17:16.894Z,41.32
2022-08-23T12:22:23.511Z,40.92
2022-08-23T12:27:30.717Z,40.69
2022-08-23T12:32:37.920Z,39.86
2022-08-23T12:37:45.156Z,40.77
2022-08-23T12:42:52.376Z,40.74
2022-08-23T12:47:59.616Z,39.65
2022-08-23T12:53:06.842Z,39.29
2022-08-23T12:58:14.048Z,39.57
2022-08-23T13:03:21.273Z,38.38
2022-08-23T13:08:34.759Z,39.05
2022-08-23T13:13:35.727Z,38.85
2022-08-23T13:18:42.878Z,38.20
2022-08-23T13:23:50.086Z,38.16
2022-08-23T13:28:57.255Z,38.98
2022-08-23T13:34:06.096Z,38.29
2022-08-23T13:39:11.641Z,36.88
2022-08-23T13:44:19.302Z,37.10
2022-08-23T13:49:26.284Z,37.26
2022-08-23T13:54:33.494Z,37.00
2022-08-23T13:59:40.745Z,37.46
2022-08-23T14:04:48.014Z,36.55
2022-08-23T14:09:55.363Z,36.38
2022-08-23T14:15:02.323Z,36.27
2022-08-23T14:25:16.671Z,35.43
2022-08-23T14:30:23.887Z,35.48
2022-08-23T14:35:31.058Z,34.83
2022-08-23T14:40:38.250Z,35.31
2022-08-23T14:45:45.602Z,35.36
2022-08-23T14:50:52.721Z,34.90
2022-08-23T14:56:20.636Z,34.28
2022-08-23T15:01:07.182Z,34.76
2022-08-23T15:06:14.368Z,34.01
2022-08-23T15:16:28.824Z,35.04
2022-08-23T15:21:35.939Z,34.12
2022-08-23T15:26:43.188Z,34.30
2022-08-23T15:31:50.425Z,35.07
2022-08-23T15:36:57.715Z,34.47
2022-08-23T15:42:04.979Z,34.98
2022-08-23T15:47:12.128Z,34.88
2022-08-23T15:52:19.355Z,34.96
2022-08-23T15:57:27.884Z,34.05
2022-08-23T16:02:51.054Z,34.63
2022-08-23T16:07:40.951Z,34.60
2022-08-23T16:12:48.187Z,34.34
2022-08-23T16:17:55.383Z,34.42
2022-08-23T16:23:02.841Z,34.44
2022-08-23T16:28:09.693Z,34.55
2022-08-23T16:33:16.949Z,34.68
2022-08-23T16:38:24.144Z,33.61
2022-08-23T16:43:32.998Z,33.38
2022-08-23T16:48:40.188Z,33.88
2022-08-23T16:53:57.059Z,33.92
2022-08-23T16:58:54.668Z,33.89
2022-08-23T17:04:01.821Z,34.16
2022-08-23T17:09:09.014Z,34.37
2022-08-23T17:14:16.208Z,34.85
2022-08-23T17:19:23.434Z,34.96
2022-08-23T17:24:30.597Z,35.08
2022-08-23T17:29:37.789Z,34.85
2022-08-23T17:34:44.952Z,35.17
2022-08-23T17:39:53.299Z,35.12
2022-08-23T17:44:59.329Z,34.73
2022-08-23T17:50:06.563Z,34.22
2022-08-23T17:55:13.750Z,34.16
2022-08-23T18:00:20.929Z,34.52
2022-08-23T18:05:28.090Z,34.64
2022-08-23T18:10:35.346Z,34.83
2022-08-23T18:15:42.561Z,35.08
2022-08-23T18:20:49.994Z,35.20
2022-08-23T18:25:57.598Z,35.91
2022-08-23T18:31:05.132Z,36.54
2022-08-23T18:36:12.515Z,36.71
2022-08-23T18:41:19.824Z,36.76
2022-08-23T18:46:31.707Z,36.66
2022-08-23T18:51:35.060Z,37.21
2022-08-23T18:56:42.413Z,37.60
2022-08-23T19:01:50.071Z,38.47
2022-08-23T19:06:57.489Z,38.57
2022-08-23T19:12:05.100Z,38.74
2022-08-23T19:17:12.477Z,38.77
2022-08-23T19:22:20.023Z,38.87
2022-08-23T19:27:27.659Z,38.92
2022-08-23T19:32:35.211Z,39.39
2022-08-23T19:37:42.766Z,39.57
2022-08-23T19:42:50.814Z,39.63
2022-08-23T19:47:58.301Z,39.76
2022-08-23T19:53:05.689Z,40.06
2022-08-23T19:58:13.233Z,40.17
2022-08-23T20:03:20.844Z,40.55
2022-08-23T20:08:35.630Z,40.56
2022-08-23T20:13:43.234Z,40.68
2022-08-23T20:18:50.640Z,40.91
2022-08-23T20:23:57.922Z,41.10
2022-08-23T20:29:05.211Z,41.10
2022-08-23T20:34:12.613Z,40.89
2022-08-23T20:39:23.751Z,41.09
2022-08-23T20:44:27.174Z,41.27
2022-08-23T20:49:34.711Z,41.01
2022-08-23T20:54:41.972Z,40.49
2022-08-23T20:59:49.276Z,40.78
2022-08-23T21:04:56.458Z,40.17
2022-08-23T21:10:03.718Z,39.91
2022-08-23T21:15:11.315Z,40.17
2022-08-23T21:20:18.267Z,40.30
2022-08-23T21:25:25.509Z,39.78
2022-08-23T21:30:32.784Z,40.38
2022-08-23T21:35:39.986Z,40.31
2022-08-23T21:40:47.167Z,40.61
2022-08-23T21:45:54.462Z,40.53
2022-08-23T21:51:01.643Z,41.15
2022-08-23T21:56:08.800Z,40.63
2022-08-23T22:01:16.075Z,40.52
2022-08-23T22:06:23.183Z,40.55
2022-08-23T22:11:30.393Z,40.83
2022-08-23T22:16:37.583Z,41.05
2022-08-23T22:21:44.775Z,40.50
2022-08-23T22:26:52.015Z,40.53
2022-08-23T22:31:59.198Z,40.86
2022-08-23T22:37:06.366Z,40.93
2022-08-23T22:42:13.620Z,40.96
2022-08-23T22:47:20.819Z,40.81
2022-08-23T22:52:27.991Z,41.58
2022-08-23T22:57:35.223Z,41.06
2022-08-23T23:02:42.460Z,41.34
2022-08-23T23:07:49.660Z,41.03
2022-08-23T23:12:56.861Z,41.33
2022-08-23T23:18:04.346Z,41.43
2022-08-23T23:23:11.293Z,41.56
2022-08-23T23:28:18.504Z,41.19
2022-08-23T23:33:25.767Z,41.39
2022-08-23T23:38:32.987Z,41.36
2022-08-23T23:43:40.169Z,41.62
2022-08-23T23:48:47.428Z,41.75
2022-08-23T23:53:54.650Z,41.84
2022-08-23T23:59:01.898Z,41.77
